sensor_id;sensor_type;location;lat;lon;timestamp;temperature;humidity
25914;DHT22;13718;50.922;5.346;2022-12-07T00:01:16;5.80;99.90
25914;DHT22;13718;50.922;5.346;2022-12-07T00:03:44;5.70;99.90
25914;DHT22;13718;50.922;5.346;2022-12-07T00:06:12;5.60;99.90
25914;DHT22;13718;50.922;5.346;2022-12-07T00:08:37;5.60;99.90
25914;DHT22;13718;50.922;5.346;2022-12-07T00:11:12;5.50;99.90
25914;DHT22;13718;50.922;5.346;2022-12-07T00:13:39;5.60;99.90
25914;DHT22;13718;50.922;5.346;2022-12-07T00:16:07;5.60;99.90
25914;DHT22;13718;50.922;5.346;2022-12-07T00:18:33;5.70;99.90
25914;DHT22;13718;50.922;5.346;2022-12-07T00:21:05;5.60;99.90
25914;DHT22;13718;50.922;5.346;2022-12-07T00:23:31;5.60;99.90
25914;DHT22;13718;50.922;5.346;2022-12-07T00:26:07;5.60;99.90
25914;DHT22;13718;50.922;5.346;2022-12-07T00:28:33;5.60;99.90
25914;DHT22;13718;50.922;5.346;2022-12-07T00:31:07;5.50;99.90
25914;DHT22;13718;50.922;5.346;2022-12-07T00:33:34;5.50;99.90
25914;DHT22;13718;50.922;5.346;2022-12-07T00:36:01;5.40;99.90
25914;DHT22;13718;50.922;5.346;2022-12-07T00:38:29;5.40;99.90
25914;DHT22;13718;50.922;5.346;2022-12-07T00:41:00;5.30;99.90
25914;DHT22;13718;50.922;5.346;2022-12-07T00:43:26;5.30;99.90
25914;DHT22;13718;50.922;5.346;2022-12-07T00:45:53;5.30;99.90
25914;DHT22;13718;50.922;5.346;2022-12-07T00:48:19;5.30;99.90
25914;DHT22;13718;50.922;5.346;2022-12-07T00:50:44;5.40;99.90
25914;DHT22;13718;50.922;5.346;2022-12-07T00:53:10;5.40;99.90
25914;DHT22;13718;50.922;5.346;2022-12-07T00:55:36;5.50;99.90
25914;DHT22;13718;50.922;5.346;2022-12-07T00:58:02;5.50;99.90
25914;DHT22;13718;50.922;5.346;2022-12-07T01:00:28;5.50;99.90
25914;DHT22;13718;50.922;5.346;2022-12-07T01:02:53;5.60;99.90
25914;DHT22;13718;50.922;5.346;2022-12-07T01:05:19;5.60;99.90
25914;DHT22;13718;50.922;5.346;2022-12-07T01:07:45;5.60;99.90
25914;DHT22;13718;50.922;5.346;2022-12-07T01:10:12;5.60;99.90
25914;DHT22;13718;50.922;5.346;2022-12-07T01:12:38;5.60;99.90
25914;DHT22;13718;50.922;5.346;2022-12-07T01:15:05;5.60;99.90
25914;DHT22;13718;50.922;5.346;2022-12-07T01:17:30;5.70;99.90
25914;DHT22;13718;50.922;5.346;2022-12-07T01:19:56;5.70;99.90
25914;DHT22;13718;50.922;5.346;2022-12-07T01:22:22;5.80;99.90
25914;DHT22;13718;50.922;5.346;2022-12-07T01:24:47;5.80;99.90
25914;DHT22;13718;50.922;5.346;2022-12-07T01:27:13;5.80;99.90
25914;DHT22;13718;50.922;5.346;2022-12-07T01:29:39;5.90;99.90
25914;DHT22;13718;50.922;5.346;2022-12-07T01:32:05;5.90;99.90
25914;DHT22;13718;50.922;5.346;2022-12-07T01:34:30;5.90;99.90
25914;DHT22;13718;50.922;5.346;2022-12-07T01:36:56;5.90;99.90
25914;DHT22;13718;50.922;5.346;2022-12-07T01:39:22;5.90;99.90
25914;DHT22;13718;50.922;5.346;2022-12-07T01:41:47;6.00;99.90
25914;DHT22;13718;50.922;5.346;2022-12-07T01:44:29;6.00;99.90
25914;DHT22;13718;50.922;5.346;2022-12-07T01:52:20;6.00;99.90
25914;DHT22;13718;50.922;5.346;2022-12-07T01:54:49;6.00;99.90
25914;DHT22;13718;50.922;5.346;2022-12-07T01:57:16;6.00;99.90
25914;DHT22;13718;50.922;5.346;2022-12-07T01:59:44;5.90;99.90
25914;DHT22;13718;50.922;5.346;2022-12-07T02:02:18;5.80;99.90
25914;DHT22;13718;50.922;5.346;2022-12-07T02:04:46;5.80;99.90
25914;DHT22;13718;50.922;5.346;2022-12-07T02:07:12;5.80;99.90
25914;DHT22;13718;50.922;5.346;2022-12-07T02:09:38;5.80;99.90
25914;DHT22;13718;50.922;5.346;2022-12-07T02:12:04;5.70;99.90
25914;DHT22;13718;50.922;5.346;2022-12-07T02:14:30;5.70;99.90
25914;DHT22;13718;50.922;5.346;2022-12-07T02:17:06;5.60;99.90
25914;DHT22;13718;50.922;5.346;2022-12-07T02:20:04;5.60;99.90
25914;DHT22;13718;50.922;5.346;2022-12-07T02:26:02;5.60;99.90
25914;DHT22;13718;50.922;5.346;2022-12-07T02:28:31;5.60;99.90
25914;DHT22;13718;50.922;5.346;2022-12-07T02:31:04;5.60;99.90
25914;DHT22;13718;50.922;5.346;2022-12-07T02:33:36;5.70;99.90
25914;DHT22;13718;50.922;5.346;2022-12-07T02:36:10;5.70;99.90
25914;DHT22;13718;50.922;5.346;2022-12-07T02:38:43;5.70;99.90
25914;DHT22;13718;50.922;5.346;2022-12-07T02:41:54;5.70;99.90
25914;DHT22;13718;50.922;5.346;2022-12-07T02:44:01;5.70;99.90
25914;DHT22;13718;50.922;5.346;2022-12-07T02:46:32;5.80;99.90
25914;DHT22;13718;50.922;5.346;2022-12-07T02:48:59;5.70;99.90
25914;DHT22;13718;50.922;5.346;2022-12-07T02:51:29;5.80;99.90
25914;DHT22;13718;50.922;5.346;2022-12-07T02:53:54;5.80;99.90
25914;DHT22;13718;50.922;5.346;2022-12-07T03:12:53;5.90;99.90
25914;DHT22;13718;50.922;5.346;2022-12-07T03:15:38;5.90;99.90
25914;DHT22;13718;50.922;5.346;2022-12-07T03:18:05;6.00;99.90
25914;DHT22;13718;50.922;5.346;2022-12-07T03:20:32;6.00;99.90
25914;DHT22;13718;50.922;5.346;2022-12-07T03:22:59;6.00;99.90
25914;DHT22;13718;50.922;5.346;2022-12-07T03:25:26;5.90;99.90
25914;DHT22;13718;50.922;5.346;2022-12-07T03:27:58;5.90;99.90
25914;DHT22;13718;50.922;5.346;2022-12-07T03:30:54;5.90;99.90
25914;DHT22;13718;50.922;5.346;2022-12-07T03:33:30;5.80;99.90
25914;DHT22;13718;50.922;5.346;2022-12-07T03:36:10;5.70;99.90
25914;DHT22;13718;50.922;5.346;2022-12-07T03:39:16;5.80;99.90
25914;DHT22;13718;50.922;5.346;2022-12-07T03:41:33;5.70;99.90
25914;DHT22;13718;50.922;5.346;2022-12-07T03:43:59;5.80;99.90
25914;DHT22;13718;50.922;5.346;2022-12-07T03:46:48;5.80;99.90
25914;DHT22;13718;50.922;5.346;2022-12-07T03:49:25;5.90;99.90
25914;DHT22;13718;50.922;5.346;2022-12-07T03:57:15;5.90;99.90
25914;DHT22;13718;50.922;5.346;2022-12-07T03:59:42;5.90;99.90
25914;DHT22;13718;50.922;5.346;2022-12-07T04:02:11;5.90;99.90
25914;DHT22;13718;50.922;5.346;2022-12-07T04:04:38;5.90;99.90
25914;DHT22;13718;50.922;5.346;2022-12-07T04:07:04;5.90;99.90
25914;DHT22;13718;50.922;5.346;2022-12-07T04:09:29;5.90;99.90
25914;DHT22;13718;50.922;5.346;2022-12-07T04:11:55;5.90;99.90
25914;DHT22;13718;50.922;5.346;2022-12-07T04:14:21;5.90;99.90
25914;DHT22;13718;50.922;5.346;2022-12-07T04:16:52;5.70;99.90
25914;DHT22;13718;50.922;5.346;2022-12-07T04:19:20;5.50;99.90
25914;DHT22;13718;50.922;5.346;2022-12-07T04:21:46;5.40;99.90
25914;DHT22;13718;50.922;5.346;2022-12-07T04:24:13;5.30;99.90
25914;DHT22;13718;50.922;5.346;2022-12-07T04:26:39;5.20;99.90
25914;DHT22;13718;50.922;5.346;2022-12-07T04:29:05;5.20;99.90
25914;DHT22;13718;50.922;5.346;2022-12-07T04:31:30;5.10;99.90
25914;DHT22;13718;50.922;5.346;2022-12-07T04:33:56;5.10;99.90
25914;DHT22;13718;50.922;5.346;2022-12-07T04:36:21;5.10;99.90
25914;DHT22;13718;50.922;5.346;2022-12-07T04:38:47;5.00;99.90
25914;DHT22;13718;50.922;5.346;2022-12-07T04:41:13;5.10;99.90
25914;DHT22;13718;50.922;5.346;2022-12-07T04:43:38;5.10;99.90
25914;DHT22;13718;50.922;5.346;2022-12-07T04:46:04;5.00;99.90
25914;DHT22;13718;50.922;5.346;2022-12-07T04:48:30;4.90;99.90
25914;DHT22;13718;50.922;5.346;2022-12-07T04:50:56;4.90;99.90
25914;DHT22;13718;50.922;5.346;2022-12-07T04:53:22;5.00;99.90
25914;DHT22;13718;50.922;5.346;2022-12-07T04:55:47;5.10;99.90
25914;DHT22;13718;50.922;5.346;2022-12-07T04:58:13;5.10;99.90
25914;DHT22;13718;50.922;5.346;2022-12-07T05:00:40;5.20;99.90
25914;DHT22;13718;50.922;5.346;2022-12-07T05:03:05;5.40;99.90
25914;DHT22;13718;50.922;5.346;2022-12-07T05:05:31;5.50;99.90
25914;DHT22;13718;50.922;5.346;2022-12-07T05:07:57;5.40;99.90
25914;DHT22;13718;50.922;5.346;2022-12-07T05:10:22;5.40;99.90
25914;DHT22;13718;50.922;5.346;2022-12-07T05:12:48;5.30;99.90
25914;DHT22;13718;50.922;5.346;2022-12-07T05:15:14;5.10;99.90
25914;DHT22;13718;50.922;5.346;2022-12-07T05:17:40;5.00;99.90
25914;DHT22;13718;50.922;5.346;2022-12-07T05:20:06;4.80;99.90
25914;DHT22;13718;50.922;5.346;2022-12-07T05:22:33;4.70;99.90
25914;DHT22;13718;50.922;5.346;2022-12-07T05:24:59;4.60;99.90
25914;DHT22;13718;50.922;5.346;2022-12-07T05:27:24;4.60;99.90
25914;DHT22;13718;50.922;5.346;2022-12-07T05:29:50;4.50;99.90
25914;DHT22;13718;50.922;5.346;2022-12-07T05:32:17;4.50;99.90
25914;DHT22;13718;50.922;5.346;2022-12-07T05:34:42;4.50;99.90
25914;DHT22;13718;50.922;5.346;2022-12-07T05:37:08;4.50;99.90
25914;DHT22;13718;50.922;5.346;2022-12-07T05:39:33;4.50;99.90
25914;DHT22;13718;50.922;5.346;2022-12-07T05:41:59;4.60;99.90
25914;DHT22;13718;50.922;5.346;2022-12-07T05:44:41;4.80;99.90
25914;DHT22;13718;50.922;5.346;2022-12-07T05:47:07;4.80;99.90
25914;DHT22;13718;50.922;5.346;2022-12-07T05:49:33;4.90;99.90
25914;DHT22;13718;50.922;5.346;2022-12-07T05:51:59;4.90;99.90
25914;DHT22;13718;50.922;5.346;2022-12-07T05:54:25;4.90;99.90
25914;DHT22;13718;50.922;5.346;2022-12-07T05:56:50;4.80;99.90
25914;DHT22;13718;50.922;5.346;2022-12-07T05:59:16;4.90;99.90
25914;DHT22;13718;50.922;5.346;2022-12-07T06:02:01;4.90;99.90
25914;DHT22;13718;50.922;5.346;2022-12-07T06:04:29;4.90;99.90
25914;DHT22;13718;50.922;5.346;2022-12-07T06:06:55;5.00;99.90
25914;DHT22;13718;50.922;5.346;2022-12-07T06:09:22;5.00;99.90
25914;DHT22;13718;50.922;5.346;2022-12-07T06:11:48;5.10;99.90
25914;DHT22;13718;50.922;5.346;2022-12-07T06:14:32;5.10;99.90
25914;DHT22;13718;50.922;5.346;2022-12-07T06:16:58;5.10;99.90
25914;DHT22;13718;50.922;5.346;2022-12-07T06:19:24;5.10;99.90
25914;DHT22;13718;50.922;5.346;2022-12-07T06:21:50;5.10;99.90
25914;DHT22;13718;50.922;5.346;2022-12-07T06:24:17;5.10;99.90
25914;DHT22;13718;50.922;5.346;2022-12-07T06:26:43;5.10;99.90
25914;DHT22;13718;50.922;5.346;2022-12-07T06:29:09;5.10;99.90
25914;DHT22;13718;50.922;5.346;2022-12-07T06:31:35;5.10;99.90
25914;DHT22;13718;50.922;5.346;2022-12-07T06:34:06;5.10;99.90
25914;DHT22;13718;50.922;5.346;2022-12-07T06:36:32;5.20;99.90
25914;DHT22;13718;50.922;5.346;2022-12-07T06:38:58;5.20;99.90
25914;DHT22;13718;50.922;5.346;2022-12-07T06:41:24;5.20;99.90
25914;DHT22;13718;50.922;5.346;2022-12-07T06:43:50;5.20;99.90
25914;DHT22;13718;50.922;5.346;2022-12-07T06:46:16;5.30;99.90
25914;DHT22;13718;50.922;5.346;2022-12-07T06:48:42;5.40;99.90
25914;DHT22;13718;50.922;5.346;2022-12-07T06:51:08;5.40;99.90
25914;DHT22;13718;50.922;5.346;2022-12-07T06:53:35;5.40;99.90
25914;DHT22;13718;50.922;5.346;2022-12-07T06:56:01;5.30;99.90
25914;DHT22;13718;50.922;5.346;2022-12-07T06:58:26;5.30;99.90
25914;DHT22;13718;50.922;5.346;2022-12-07T07:00:52;5.30;99.90
25914;DHT22;13718;50.922;5.346;2022-12-07T07:03:18;5.30;99.90
25914;DHT22;13718;50.922;5.346;2022-12-07T07:05:44;5.40;99.90
25914;DHT22;13718;50.922;5.346;2022-12-07T07:08:11;5.30;99.90
25914;DHT22;13718;50.922;5.346;2022-12-07T07:10:37;5.30;99.90
25914;DHT22;13718;50.922;5.346;2022-12-07T07:13:03;5.20;99.90
25914;DHT22;13718;50.922;5.346;2022-12-07T07:15:30;5.20;99.90
25914;DHT22;13718;50.922;5.346;2022-12-07T07:17:55;5.10;99.90
25914;DHT22;13718;50.922;5.346;2022-12-07T07:20:21;5.10;99.90
25914;DHT22;13718;50.922;5.346;2022-12-07T07:22:47;5.10;99.90
25914;DHT22;13718;50.922;5.346;2022-12-07T07:25:13;5.10;99.90
25914;DHT22;13718;50.922;5.346;2022-12-07T07:27:39;5.00;99.90
25914;DHT22;13718;50.922;5.346;2022-12-07T07:30:05;5.00;99.90
25914;DHT22;13718;50.922;5.346;2022-12-07T07:32:31;4.80;99.90
25914;DHT22;13718;50.922;5.346;2022-12-07T07:34:56;4.80;99.90
25914;DHT22;13718;50.922;5.346;2022-12-07T07:37:22;4.80;99.90
25914;DHT22;13718;50.922;5.346;2022-12-07T07:39:48;4.80;99.90
25914;DHT22;13718;50.922;5.346;2022-12-07T07:42:14;4.70;99.90
25914;DHT22;13718;50.922;5.346;2022-12-07T07:44:40;4.60;99.90
25914;DHT22;13718;50.922;5.346;2022-12-07T07:47:05;4.50;99.90
25914;DHT22;13718;50.922;5.346;2022-12-07T07:49:31;4.40;99.90
25914;DHT22;13718;50.922;5.346;2022-12-07T07:51:57;4.50;99.90
25914;DHT22;13718;50.922;5.346;2022-12-07T07:54:22;4.70;99.90
25914;DHT22;13718;50.922;5.346;2022-12-07T07:56:48;4.70;99.90
25914;DHT22;13718;50.922;5.346;2022-12-07T07:59:14;4.60;99.90
25914;DHT22;13718;50.922;5.346;2022-12-07T08:01:40;4.50;99.90
25914;DHT22;13718;50.922;5.346;2022-12-07T08:04:06;4.40;99.90
25914;DHT22;13718;50.922;5.346;2022-12-07T08:06:31;4.30;99.90
25914;DHT22;13718;50.922;5.346;2022-12-07T08:08:57;4.30;99.90
25914;DHT22;13718;50.922;5.346;2022-12-07T08:11:23;4.40;99.90
25914;DHT22;13718;50.922;5.346;2022-12-07T08:13:49;4.30;99.90
25914;DHT22;13718;50.922;5.346;2022-12-07T08:16:15;4.30;99.90
25914;DHT22;13718;50.922;5.346;2022-12-07T08:18:42;4.30;99.90
25914;DHT22;13718;50.922;5.346;2022-12-07T08:21:11;4.30;99.90
25914;DHT22;13718;50.922;5.346;2022-12-07T08:23:36;4.50;99.90
25914;DHT22;13718;50.922;5.346;2022-12-07T08:26:05;4.70;99.90
25914;DHT22;13718;50.922;5.346;2022-12-07T08:28:31;4.80;99.90
25914;DHT22;13718;50.922;5.346;2022-12-07T08:31:01;5.00;99.90
25914;DHT22;13718;50.922;5.346;2022-12-07T08:33:27;5.20;99.90
25914;DHT22;13718;50.922;5.346;2022-12-07T08:35:53;5.30;99.90
25914;DHT22;13718;50.922;5.346;2022-12-07T08:38:19;5.30;99.90
25914;DHT22;13718;50.922;5.346;2022-12-07T08:40:44;5.40;99.90
25914;DHT22;13718;50.922;5.346;2022-12-07T08:43:10;5.40;99.90
25914;DHT22;13718;50.922;5.346;2022-12-07T08:45:35;5.50;99.90
25914;DHT22;13718;50.922;5.346;2022-12-07T08:48:09;5.70;99.90
25914;DHT22;13718;50.922;5.346;2022-12-07T08:50:36;5.80;99.90
25914;DHT22;13718;50.922;5.346;2022-12-07T08:53:03;5.90;99.90
25914;DHT22;13718;50.922;5.346;2022-12-07T08:55:30;6.00;99.90
25914;DHT22;13718;50.922;5.346;2022-12-07T08:57:58;6.10;99.90
25914;DHT22;13718;50.922;5.346;2022-12-07T09:00:24;6.20;99.90
25914;DHT22;13718;50.922;5.346;2022-12-07T09:02:51;6.30;99.90
25914;DHT22;13718;50.922;5.346;2022-12-07T09:05:17;6.40;99.90
25914;DHT22;13718;50.922;5.346;2022-12-07T09:07:44;6.40;99.90
25914;DHT22;13718;50.922;5.346;2022-12-07T09:10:11;6.40;99.90
25914;DHT22;13718;50.922;5.346;2022-12-07T09:12:37;6.30;99.90
25914;DHT22;13718;50.922;5.346;2022-12-07T09:15:03;6.40;99.90
25914;DHT22;13718;50.922;5.346;2022-12-07T09:17:32;6.40;99.90
25914;DHT22;13718;50.922;5.346;2022-12-07T09:19:58;6.50;99.90
25914;DHT22;13718;50.922;5.346;2022-12-07T09:22:24;6.70;99.90
25914;DHT22;13718;50.922;5.346;2022-12-07T09:24:49;6.70;99.90
25914;DHT22;13718;50.922;5.346;2022-12-07T09:27:15;6.80;99.90
25914;DHT22;13718;50.922;5.346;2022-12-07T09:29:42;6.90;99.90
25914;DHT22;13718;50.922;5.346;2022-12-07T09:32:08;7.00;99.90
25914;DHT22;13718;50.922;5.346;2022-12-07T09:34:34;7.10;99.90
25914;DHT22;13718;50.922;5.346;2022-12-07T09:37:01;7.20;99.90
25914;DHT22;13718;50.922;5.346;2022-12-07T09:39:28;7.20;99.90
25914;DHT22;13718;50.922;5.346;2022-12-07T09:41:53;7.20;99.90
25914;DHT22;13718;50.922;5.346;2022-12-07T09:44:25;7.20;99.90
25914;DHT22;13718;50.922;5.346;2022-12-07T09:46:52;7.10;99.90
25914;DHT22;13718;50.922;5.346;2022-12-07T09:49:21;7.10;99.90
25914;DHT22;13718;50.922;5.346;2022-12-07T09:51:47;7.00;99.90
25914;DHT22;13718;50.922;5.346;2022-12-07T09:54:22;6.90;99.90
25914;DHT22;13718;50.922;5.346;2022-12-07T09:56:48;6.90;99.90
25914;DHT22;13718;50.922;5.346;2022-12-07T09:59:17;7.00;99.90
25914;DHT22;13718;50.922;5.346;2022-12-07T10:01:44;7.10;99.90
25914;DHT22;13718;50.922;5.346;2022-12-07T10:04:18;7.20;99.90
25914;DHT22;13718;50.922;5.346;2022-12-07T10:06:44;7.20;99.90
25914;DHT22;13718;50.922;5.346;2022-12-07T10:09:16;7.10;99.90
25914;DHT22;13718;50.922;5.346;2022-12-07T10:12:08;7.10;99.90
25914;DHT22;13718;50.922;5.346;2022-12-07T10:14:38;7.00;99.90
25914;DHT22;13718;50.922;5.346;2022-12-07T10:17:31;7.00;99.90
25914;DHT22;13718;50.922;5.346;2022-12-07T10:20:13;7.10;99.90
25914;DHT22;13718;50.922;5.346;2022-12-07T10:22:58;7.10;99.90
25914;DHT22;13718;50.922;5.346;2022-12-07T10:25:28;7.30;99.90
25914;DHT22;13718;50.922;5.346;2022-12-07T10:28:14;7.60;99.90
25914;DHT22;13718;50.922;5.346;2022-12-07T10:30:49;7.70;99.90
25914;DHT22;13718;50.922;5.346;2022-12-07T10:33:53;7.90;99.90
25914;DHT22;13718;50.922;5.346;2022-12-07T10:38:50;7.90;99.90
25914;DHT22;13718;50.922;5.346;2022-12-07T10:41:16;7.90;99.90
25914;DHT22;13718;50.922;5.346;2022-12-07T10:43:53;7.90;99.90
25914;DHT22;13718;50.922;5.346;2022-12-07T10:49:08;8.10;99.90
25914;DHT22;13718;50.922;5.346;2022-12-07T10:54:35;8.10;99.90
25914;DHT22;13718;50.922;5.346;2022-12-07T11:11:09;8.10;99.90
25914;DHT22;13718;50.922;5.346;2022-12-07T11:19:00;8.10;99.90
25914;DHT22;13718;50.922;5.346;2022-12-07T11:29:47;8.00;99.90
25914;DHT22;13718;50.922;5.346;2022-12-07T11:37:41;8.10;99.90
25914;DHT22;13718;50.922;5.346;2022-12-07T11:40:30;8.10;99.90
25914;DHT22;13718;50.922;5.346;2022-12-07T11:43:17;8.20;99.90
25914;DHT22;13718;50.922;5.346;2022-12-07T11:45:50;8.20;99.90
25914;DHT22;13718;50.922;5.346;2022-12-07T11:48:25;8.30;99.90
25914;DHT22;13718;50.922;5.346;2022-12-07T11:50:58;8.40;99.90
25914;DHT22;13718;50.922;5.346;2022-12-07T11:53:25;8.50;99.90
25914;DHT22;13718;50.922;5.346;2022-12-07T12:03:47;8.90;99.90
25914;DHT22;13718;50.922;5.346;2022-12-07T12:06:14;8.90;99.90
25914;DHT22;13718;50.922;5.346;2022-12-07T12:08:44;9.10;99.90
25914;DHT22;13718;50.922;5.346;2022-12-07T12:19:38;9.30;99.90
25914;DHT22;13718;50.922;5.346;2022-12-07T12:24:40;9.40;99.90
25914;DHT22;13718;50.922;5.346;2022-12-07T12:27:09;9.40;99.90
25914;DHT22;13718;50.922;5.346;2022-12-07T12:29:41;9.40;99.90
25914;DHT22;13718;50.922;5.346;2022-12-07T12:32:15;9.40;99.90
25914;DHT22;13718;50.922;5.346;2022-12-07T12:34:59;9.40;99.90
25914;DHT22;13718;50.922;5.346;2022-12-07T12:45:32;9.50;99.90
25914;DHT22;13718;50.922;5.346;2022-12-07T12:48:01;9.50;99.90
25914;DHT22;13718;50.922;5.346;2022-12-07T12:53:15;9.40;99.90
25914;DHT22;13718;50.922;5.346;2022-12-07T13:01:30;9.50;99.90
25914;DHT22;13718;50.922;5.346;2022-12-07T13:03:34;9.50;99.90
25914;DHT22;13718;50.922;5.346;2022-12-07T13:08:49;9.40;99.90
25914;DHT22;13718;50.922;5.346;2022-12-07T13:11:25;9.40;99.90
25914;DHT22;13718;50.922;5.346;2022-12-07T13:16:57;9.30;99.90
25914;DHT22;13718;50.922;5.346;2022-12-07T13:25:20;9.30;99.90
25914;DHT22;13718;50.922;5.346;2022-12-07T13:27:57;9.20;99.90
25914;DHT22;13718;50.922;5.346;2022-12-07T13:30:24;9.20;99.90
25914;DHT22;13718;50.922;5.346;2022-12-07T13:32:58;9.20;99.90
25914;DHT22;13718;50.922;5.346;2022-12-07T13:35:37;9.10;99.90
25914;DHT22;13718;50.922;5.346;2022-12-07T13:38:13;9.00;99.90
25914;DHT22;13718;50.922;5.346;2022-12-07T13:40:40;9.00;99.90
25914;DHT22;13718;50.922;5.346;2022-12-07T13:43:14;9.00;99.90
25914;DHT22;13718;50.922;5.346;2022-12-07T13:45:41;9.00;99.90
25914;DHT22;13718;50.922;5.346;2022-12-07T13:50:56;9.10;99.90
25914;DHT22;13718;50.922;5.346;2022-12-07T13:53:22;9.20;99.90
25914;DHT22;13718;50.922;5.346;2022-12-07T13:55:48;9.20;99.90
25914;DHT22;13718;50.922;5.346;2022-12-07T13:58:14;9.30;99.90
25914;DHT22;13718;50.922;5.346;2022-12-07T14:00:41;9.30;99.90
25914;DHT22;13718;50.922;5.346;2022-12-07T14:05:44;9.10;99.90
25914;DHT22;13718;50.922;5.346;2022-12-07T14:10:40;8.90;99.90
25914;DHT22;13718;50.922;5.346;2022-12-07T14:13:50;8.90;99.90
25914;DHT22;13718;50.922;5.346;2022-12-07T14:18:42;8.60;99.90
25914;DHT22;13718;50.922;5.346;2022-12-07T14:23:38;8.50;99.90
25914;DHT22;13718;50.922;5.346;2022-12-07T14:28:35;8.30;99.90
25914;DHT22;13718;50.922;5.346;2022-12-07T14:31:01;8.20;99.90
25914;DHT22;13718;50.922;5.346;2022-12-07T14:33:28;8.20;99.90
25914;DHT22;13718;50.922;5.346;2022-12-07T14:35:54;8.20;99.90
25914;DHT22;13718;50.922;5.346;2022-12-07T14:38:24;8.10;99.90
25914;DHT22;13718;50.922;5.346;2022-12-07T14:40:51;8.00;99.90
25914;DHT22;13718;50.922;5.346;2022-12-07T14:43:18;8.00;99.90
25914;DHT22;13718;50.922;5.346;2022-12-07T14:45:44;8.00;99.90
25914;DHT22;13718;50.922;5.346;2022-12-07T14:48:14;8.10;99.90
25914;DHT22;13718;50.922;5.346;2022-12-07T14:50:44;8.00;99.90
25914;DHT22;13718;50.922;5.346;2022-12-07T14:53:16;8.00;99.90
25914;DHT22;13718;50.922;5.346;2022-12-07T14:55:42;8.00;99.90
25914;DHT22;13718;50.922;5.346;2022-12-07T14:58:14;8.00;99.90
25914;DHT22;13718;50.922;5.346;2022-12-07T15:00:40;8.00;99.90
25914;DHT22;13718;50.922;5.346;2022-12-07T15:03:05;7.90;99.90
25914;DHT22;13718;50.922;5.346;2022-12-07T15:05:31;7.90;99.90
25914;DHT22;13718;50.922;5.346;2022-12-07T15:07:56;7.90;99.90
25914;DHT22;13718;50.922;5.346;2022-12-07T15:10:25;7.80;99.90
25914;DHT22;13718;50.922;5.346;2022-12-07T15:12:55;7.80;99.90
25914;DHT22;13718;50.922;5.346;2022-12-07T15:15:41;7.90;99.90
25914;DHT22;13718;50.922;5.346;2022-12-07T15:18:06;7.90;99.90
25914;DHT22;13718;50.922;5.346;2022-12-07T15:20:32;7.80;99.90
25914;DHT22;13718;50.922;5.346;2022-12-07T15:22:57;7.80;99.90
25914;DHT22;13718;50.922;5.346;2022-12-07T15:25:23;7.70;99.90
25914;DHT22;13718;50.922;5.346;2022-12-07T15:27:49;7.70;99.90
25914;DHT22;13718;50.922;5.346;2022-12-07T15:30:14;7.70;99.90
25914;DHT22;13718;50.922;5.346;2022-12-07T15:32:40;7.70;99.90
25914;DHT22;13718;50.922;5.346;2022-12-07T15:35:06;7.70;99.90
25914;DHT22;13718;50.922;5.346;2022-12-07T15:37:31;7.60;99.90
25914;DHT22;13718;50.922;5.346;2022-12-07T15:39:57;7.60;99.90
25914;DHT22;13718;50.922;5.346;2022-12-07T15:42:22;7.60;99.90
25914;DHT22;13718;50.922;5.346;2022-12-07T15:44:48;7.60;99.90
25914;DHT22;13718;50.922;5.346;2022-12-07T15:47:29;7.60;99.90
25914;DHT22;13718;50.922;5.346;2022-12-07T15:49:55;7.60;99.90
25914;DHT22;13718;50.922;5.346;2022-12-07T15:52:21;7.50;99.90
25914;DHT22;13718;50.922;5.346;2022-12-07T15:54:47;7.60;99.90
25914;DHT22;13718;50.922;5.346;2022-12-07T15:57:13;7.60;99.90
25914;DHT22;13718;50.922;5.346;2022-12-07T15:59:38;7.50;99.90
25914;DHT22;13718;50.922;5.346;2022-12-07T16:02:04;7.40;99.90
25914;DHT22;13718;50.922;5.346;2022-12-07T16:04:30;7.40;99.90
25914;DHT22;13718;50.922;5.346;2022-12-07T16:06:55;7.40;99.90
25914;DHT22;13718;50.922;5.346;2022-12-07T16:09:21;7.40;99.90
25914;DHT22;13718;50.922;5.346;2022-12-07T16:11:47;7.30;99.90
25914;DHT22;13718;50.922;5.346;2022-12-07T16:14:15;7.20;99.90
25914;DHT22;13718;50.922;5.346;2022-12-07T16:16:41;7.20;99.90
25914;DHT22;13718;50.922;5.346;2022-12-07T16:19:07;7.20;99.90
25914;DHT22;13718;50.922;5.346;2022-12-07T16:21:34;7.10;99.90
25914;DHT22;13718;50.922;5.346;2022-12-07T16:24:01;7.10;99.90
25914;DHT22;13718;50.922;5.346;2022-12-07T16:26:26;7.00;99.90
25914;DHT22;13718;50.922;5.346;2022-12-07T16:28:52;7.00;99.90
25914;DHT22;13718;50.922;5.346;2022-12-07T16:31:20;6.90;99.90
25914;DHT22;13718;50.922;5.346;2022-12-07T16:33:47;6.80;99.90
25914;DHT22;13718;50.922;5.346;2022-12-07T16:36:14;6.80;99.90
25914;DHT22;13718;50.922;5.346;2022-12-07T16:38:42;6.80;99.90
25914;DHT22;13718;50.922;5.346;2022-12-07T16:41:08;6.70;99.90
25914;DHT22;13718;50.922;5.346;2022-12-07T16:43:35;6.70;99.90
25914;DHT22;13718;50.922;5.346;2022-12-07T16:46:01;6.70;99.90
25914;DHT22;13718;50.922;5.346;2022-12-07T16:48:27;6.80;99.90
25914;DHT22;13718;50.922;5.346;2022-12-07T16:50:53;6.70;99.90
25914;DHT22;13718;50.922;5.346;2022-12-07T16:53:23;6.80;99.90
25914;DHT22;13718;50.922;5.346;2022-12-07T16:55:49;6.80;99.90
25914;DHT22;13718;50.922;5.346;2022-12-07T16:58:16;6.80;99.90
25914;DHT22;13718;50.922;5.346;2022-12-07T17:00:43;6.80;99.90
25914;DHT22;13718;50.922;5.346;2022-12-07T17:03:09;6.80;99.90
25914;DHT22;13718;50.922;5.346;2022-12-07T17:05:42;6.80;99.90
25914;DHT22;13718;50.922;5.346;2022-12-07T17:08:09;6.70;99.90
25914;DHT22;13718;50.922;5.346;2022-12-07T17:10:37;6.70;99.90
25914;DHT22;13718;50.922;5.346;2022-12-07T17:13:03;6.70;99.90
25914;DHT22;13718;50.922;5.346;2022-12-07T17:16:04;6.70;99.90
25914;DHT22;13718;50.922;5.346;2022-12-07T17:18:34;6.70;99.90
25914;DHT22;13718;50.922;5.346;2022-12-07T17:21:08;6.70;99.90
25914;DHT22;13718;50.922;5.346;2022-12-07T17:23:34;6.70;99.90
25914;DHT22;13718;50.922;5.346;2022-12-07T17:26:09;6.70;99.90
25914;DHT22;13718;50.922;5.346;2022-12-07T17:28:35;6.60;99.90
25914;DHT22;13718;50.922;5.346;2022-12-07T17:31:05;6.60;99.90
25914;DHT22;13718;50.922;5.346;2022-12-07T17:33:31;6.60;99.90
25914;DHT22;13718;50.922;5.346;2022-12-07T17:35:57;6.60;99.90
25914;DHT22;13718;50.922;5.346;2022-12-07T17:38:22;6.60;99.90
25914;DHT22;13718;50.922;5.346;2022-12-07T17:40:48;6.60;99.90
25914;DHT22;13718;50.922;5.346;2022-12-07T17:43:14;6.50;99.90
25914;DHT22;13718;50.922;5.346;2022-12-07T17:45:39;6.50;99.90
25914;DHT22;13718;50.922;5.346;2022-12-07T17:48:05;6.50;99.90
25914;DHT22;13718;50.922;5.346;2022-12-07T17:50:30;6.50;99.90
25914;DHT22;13718;50.922;5.346;2022-12-07T17:53:15;6.50;99.90
25914;DHT22;13718;50.922;5.346;2022-12-07T17:55:40;6.50;99.90
25914;DHT22;13718;50.922;5.346;2022-12-07T17:58:06;6.60;99.90
25914;DHT22;13718;50.922;5.346;2022-12-07T18:00:32;6.50;99.90
25914;DHT22;13718;50.922;5.346;2022-12-07T18:03:04;6.50;99.90
25914;DHT22;13718;50.922;5.346;2022-12-07T18:05:31;6.50;99.90
25914;DHT22;13718;50.922;5.346;2022-12-07T18:07:56;6.50;99.90